createdAt,value
2019-05-11T00:02:13.564Z,4.60
2019-05-11T00:04:43.957Z,4.80
2019-05-11T00:07:14.295Z,5.07
2019-05-11T00:09:57.363Z,5.80
2019-05-11T00:12:16.612Z,5.57
2019-05-11T00:14:47.004Z,5.30
2019-05-11T00:17:17.350Z,5.20
2019-05-11T00:19:47.620Z,5.10
2019-05-11T00:22:18.386Z,4.90
2019-05-11T00:24:48.668Z,5.30
2019-05-11T00:27:18.850Z,5.00
2019-05-11T00:29:49.925Z,5.00
2019-05-11T00:32:22.750Z,4.53
2019-05-11T00:34:52.078Z,4.60
2019-05-11T00:37:22.188Z,5.03
2019-05-11T00:39:52.691Z,4.17
2019-05-11T00:42:22.928Z,3.93
2019-05-11T00:44:53.042Z,3.57
2019-05-11T00:47:23.114Z,3.63
2019-05-11T00:49:53.202Z,3.37
2019-05-11T00:52:23.384Z,3.17
2019-05-11T00:54:53.611Z,3.53
2019-05-11T00:57:23.724Z,3.17
2019-05-11T00:59:53.856Z,3.33
2019-05-11T01:02:23.947Z,3.63
2019-05-11T01:04:54.184Z,2.60
2019-05-11T01:07:24.388Z,2.83
2019-05-11T01:09:54.411Z,3.47
2019-05-11T01:12:24.994Z,3.37
2019-05-11T01:14:55.243Z,2.73
2019-05-11T01:17:25.392Z,2.80
2019-05-11T01:19:55.695Z,2.97
2019-05-11T01:22:25.939Z,2.47
2019-05-11T01:24:56.198Z,3.33
2019-05-11T01:27:26.242Z,2.80
2019-05-11T01:29:57.250Z,2.77
2019-05-11T01:32:27.995Z,3.10
2019-05-11T01:34:58.179Z,2.70
2019-05-11T01:37:30.489Z,3.00
2019-05-11T01:40:00.879Z,3.20
2019-05-11T01:42:30.915Z,2.50
2019-05-11T01:45:01.276Z,2.37
2019-05-11T01:47:31.570Z,2.60
2019-05-11T01:50:02.270Z,2.73
2019-05-11T01:52:32.854Z,2.97
2019-05-11T01:55:03.137Z,2.60
2019-05-11T01:57:33.291Z,2.20
2019-05-11T02:00:03.576Z,2.40
2019-05-11T02:02:34.096Z,2.13
2019-05-11T02:05:42.087Z,1.80
2019-05-11T02:08:12.161Z,2.13
2019-05-11T02:10:43.892Z,1.83
2019-05-11T02:13:14.267Z,1.70
2019-05-11T02:15:46.119Z,1.70
2019-05-11T02:18:16.314Z,2.07
2019-05-11T02:20:46.539Z,1.60
2019-05-11T02:23:16.696Z,2.10
2019-05-11T02:25:46.960Z,2.60
2019-05-11T02:28:17.074Z,1.87
2019-05-11T02:30:47.555Z,2.13
2019-05-11T02:33:18.009Z,2.20
2019-05-11T02:35:48.911Z,2.70
2019-05-11T02:38:20.017Z,2.80
2019-05-11T02:40:50.110Z,2.27
2019-05-11T02:43:20.287Z,2.60
2019-05-11T02:45:51.204Z,2.83
2019-05-11T02:48:21.408Z,3.33
2019-05-11T02:50:52.572Z,2.40
2019-05-11T02:53:23.497Z,2.87
2019-05-11T02:55:54.889Z,3.47
2019-05-11T02:58:25.033Z,3.43
2019-05-11T03:00:55.265Z,3.50
2019-05-11T03:03:25.578Z,3.13
2019-05-11T03:05:56.092Z,3.13
2019-05-11T03:08:26.599Z,3.40
2019-05-11T03:10:57.743Z,3.20
2019-05-11T03:13:28.221Z,3.03
2019-05-11T03:15:58.614Z,2.63
2019-05-11T03:18:29.397Z,2.60
2019-05-11T03:20:59.749Z,3.13
2019-05-11T03:23:30.058Z,2.80
2019-05-11T03:26:00.514Z,2.83
2019-05-11T03:28:30.905Z,2.90
2019-05-11T03:31:01.484Z,2.33
2019-05-11T03:33:31.810Z,2.67
2019-05-11T03:36:02.112Z,2.77
2019-05-11T03:38:32.893Z,2.60
2019-05-11T03:41:03.151Z,2.23
2019-05-11T03:43:33.414Z,2.00
2019-05-11T03:46:03.631Z,2.20
2019-05-11T03:48:34.031Z,2.13
2019-05-11T03:51:04.414Z,2.40
2019-05-11T03:53:34.503Z,2.00
2019-05-11T03:56:04.820Z,1.90
2019-05-11T03:58:35.058Z,1.70
2019-05-11T04:01:05.184Z,2.13
2019-05-11T04:03:35.776Z,1.83
2019-05-11T04:06:07.144Z,1.50
2019-05-11T04:08:37.932Z,1.80
2019-05-11T04:11:08.702Z,1.70
2019-05-11T04:13:39.083Z,1.80
2019-05-11T04:16:09.550Z,1.67
2019-05-11T04:18:39.801Z,1.70
2019-05-11T04:21:09.921Z,1.77
2019-05-11T04:23:39.997Z,1.80
2019-05-11T04:26:10.163Z,1.77
2019-05-11T04:28:40.681Z,1.77
2019-05-11T04:31:11.438Z,1.30
2019-05-11T04:33:41.797Z,1.40
2019-05-11T04:36:11.981Z,1.27
2019-05-11T04:38:42.350Z,1.40
2019-05-11T04:41:12.404Z,1.10
2019-05-11T04:43:42.586Z,1.30
2019-05-11T04:46:12.717Z,1.13
2019-05-11T04:48:42.802Z,1.30
2019-05-11T04:51:12.871Z,1.23
2019-05-11T04:53:43.010Z,1.00
2019-05-11T04:56:13.647Z,1.40
2019-05-11T04:58:43.832Z,1.10
2019-05-11T05:01:15.680Z,1.73
2019-05-11T05:03:54.139Z,2.00
2019-05-11T05:06:24.618Z,2.00
2019-05-11T05:08:51.925Z,2.20
2019-05-11T05:11:22.024Z,2.70
2019-05-11T05:13:53.667Z,2.47
2019-05-11T05:16:23.979Z,3.47
2019-05-11T05:18:54.216Z,3.40
2019-05-11T05:21:24.575Z,3.20
2019-05-11T05:23:54.612Z,3.20
2019-05-11T05:26:24.721Z,4.27
2019-05-11T05:28:54.906Z,5.50
2019-05-11T05:31:25.067Z,3.60
2019-05-11T05:33:56.285Z,3.63
2019-05-11T05:36:26.488Z,4.30
2019-05-11T05:38:56.752Z,3.87
2019-05-11T05:41:27.887Z,4.07
2019-05-11T05:43:57.969Z,4.23
2019-05-11T05:46:28.966Z,3.57
2019-05-11T05:48:59.070Z,4.30
2019-05-11T05:51:29.199Z,4.27
2019-05-11T05:53:59.284Z,3.10
2019-05-11T05:56:29.369Z,3.40
2019-05-11T05:58:59.929Z,2.73
2019-05-11T06:01:30.184Z,3.33
2019-05-11T06:04:00.272Z,3.07
2019-05-11T06:06:31.990Z,3.60
2019-05-11T06:09:03.036Z,4.80
2019-05-11T06:11:33.369Z,3.43
2019-05-11T06:14:04.410Z,3.90
2019-05-11T06:16:36.921Z,4.37
2019-05-11T06:19:07.025Z,3.77
2019-05-11T06:21:49.681Z,5.20
2019-05-11T06:24:19.730Z,4.10
2019-05-11T06:26:50.231Z,4.10
2019-05-11T06:29:21.873Z,4.00
2019-05-11T06:31:54.657Z,3.73
2019-05-11T06:34:26.408Z,3.90
2019-05-11T06:36:58.040Z,3.43
2019-05-11T06:39:32.070Z,3.97
2019-05-11T06:42:02.106Z,3.80
2019-05-11T06:44:32.211Z,2.67
2019-05-11T06:47:02.253Z,3.70
2019-05-11T06:49:32.365Z,3.70
2019-05-11T06:52:03.594Z,3.10
2019-05-11T06:54:34.113Z,2.93
2019-05-11T06:57:04.671Z,3.90
2019-05-11T06:59:35.658Z,4.03
2019-05-11T07:02:07.393Z,4.20
2019-05-11T07:04:37.676Z,4.23
2019-05-11T07:07:07.927Z,5.10
2019-05-11T07:09:38.252Z,4.17
2019-05-11T07:12:08.392Z,3.83
2019-05-11T07:14:40.551Z,3.93
2019-05-11T07:17:10.747Z,4.33
2019-05-11T07:19:41.692Z,3.33
2019-05-11T07:22:12.237Z,3.10
2019-05-11T07:24:42.603Z,4.50
2019-05-11T07:27:12.696Z,4.07
2019-05-11T07:29:43.241Z,3.70
2019-05-11T07:32:22.390Z,3.73
2019-05-11T07:34:46.115Z,3.70
2019-05-11T07:37:18.551Z,3.00
2019-05-11T07:39:48.844Z,3.67
2019-05-11T07:42:19.511Z,3.60
2019-05-11T07:44:49.616Z,3.30
2019-05-11T07:47:20.555Z,3.63
2019-05-11T07:49:50.868Z,3.23
2019-05-11T07:52:20.993Z,3.70
2019-05-11T07:54:52.954Z,3.40
2019-05-11T07:57:22.970Z,3.47
2019-05-11T07:59:53.058Z,3.23
2019-05-11T08:02:23.347Z,3.27
2019-05-11T08:04:53.451Z,2.70
2019-05-11T08:07:23.668Z,2.27
2019-05-11T08:09:53.772Z,2.90
2019-05-11T08:12:25.431Z,2.20
2019-05-11T08:15:04.891Z,1.90
2019-05-11T08:17:28.645Z,2.37
2019-05-11T08:19:59.072Z,1.90
2019-05-11T08:22:31.373Z,2.00
2019-05-11T08:25:02.010Z,2.30
2019-05-11T08:27:32.586Z,2.43
2019-05-11T08:30:03.531Z,1.53
2019-05-11T08:32:33.859Z,1.83
2019-05-11T08:35:03.966Z,2.73
2019-05-11T08:37:34.044Z,1.70
2019-05-11T08:40:04.257Z,1.57
2019-05-11T08:42:34.252Z,2.07
2019-05-11T08:45:18.985Z,2.00
2019-05-11T08:47:37.768Z,2.20
2019-05-11T08:50:08.419Z,1.90
2019-05-11T08:52:38.825Z,2.27
2019-05-11T08:55:09.248Z,1.70
2019-05-11T08:57:39.436Z,2.07
2019-05-11T09:00:13.956Z,1.67
2019-05-11T09:02:46.911Z,1.70
2019-05-11T09:05:18.514Z,1.80
2019-05-11T09:07:48.816Z,1.97
2019-05-11T09:10:19.129Z,2.17
2019-05-11T09:12:49.614Z,2.07
2019-05-11T09:15:32.606Z,2.37
2019-05-11T09:17:51.507Z,1.63
2019-05-11T09:20:21.516Z,1.50
2019-05-11T09:22:51.593Z,1.50
2019-05-11T09:25:22.338Z,1.80
2019-05-11T09:27:52.442Z,1.70
2019-05-11T09:30:23.122Z,1.70
2019-05-11T09:32:53.305Z,1.70
2019-05-11T09:35:23.536Z,1.73
2019-05-11T09:37:53.788Z,1.83
2019-05-11T09:40:23.985Z,1.60
2019-05-11T09:42:54.063Z,1.43
2019-05-11T09:45:24.596Z,1.50
2019-05-11T09:47:54.643Z,1.87
2019-05-11T09:50:25.154Z,1.73
2019-05-11T09:52:55.260Z,1.67
2019-05-11T09:55:25.449Z,2.10
2019-05-11T09:57:57.843Z,1.80
2019-05-11T10:00:28.442Z,1.90
2019-05-11T10:02:58.618Z,1.93
2019-05-11T10:05:29.511Z,1.70
2019-05-11T10:08:00.036Z,1.67
2019-05-11T10:10:30.112Z,2.10
2019-05-11T10:13:00.176Z,2.40
2019-05-11T10:15:30.334Z,2.03
2019-05-11T10:18:00.439Z,1.80
2019-05-11T10:20:30.831Z,2.10
2019-05-11T10:23:00.989Z,2.43
2019-05-11T10:25:31.160Z,2.47
2019-05-11T10:28:01.345Z,2.60
2019-05-11T10:30:31.820Z,2.07
2019-05-11T10:33:01.985Z,2.30
2019-05-11T10:35:32.239Z,2.00
2019-05-11T10:38:02.561Z,1.73
2019-05-11T10:40:32.588Z,2.43
2019-05-11T10:43:02.652Z,1.93
2019-05-11T10:45:32.850Z,1.80
2019-05-11T10:48:03.778Z,2.00
2019-05-11T10:50:34.471Z,2.80
2019-05-11T10:53:04.765Z,2.00
2019-05-11T10:55:38.677Z,2.20
2019-05-11T10:58:09.052Z,2.23
2019-05-11T11:00:39.106Z,2.03
2019-05-11T11:03:09.792Z,2.20
2019-05-11T11:05:39.944Z,2.27
2019-05-11T11:08:10.857Z,1.90
2019-05-11T11:10:40.931Z,2.00
2019-05-11T11:13:11.557Z,1.67
2019-05-11T11:15:42.195Z,2.13
2019-05-11T11:18:12.312Z,1.70
2019-05-11T11:20:42.917Z,1.60
2019-05-11T11:23:13.163Z,1.87
2019-05-11T11:25:43.869Z,2.27
2019-05-11T11:28:14.167Z,2.00
2019-05-11T11:30:44.371Z,1.97
2019-05-11T11:33:14.784Z,1.47
2019-05-11T11:35:44.914Z,2.20
2019-05-11T11:38:15.132Z,2.20
2019-05-11T11:40:48.008Z,2.47
2019-05-11T11:43:18.610Z,2.50
2019-05-11T11:45:48.780Z,1.80
2019-05-11T11:48:19.112Z,1.90
2019-05-11T11:50:49.559Z,2.00
2019-05-11T11:53:19.748Z,2.23
2019-05-11T11:55:49.936Z,2.00
2019-05-11T11:58:23.758Z,1.77
2019-05-11T12:00:52.782Z,2.20
2019-05-11T12:03:23.403Z,2.20
2019-05-11T12:05:53.524Z,2.00
2019-05-11T12:08:23.568Z,2.60
2019-05-11T12:10:53.622Z,3.50
2019-05-11T12:13:26.405Z,2.70
2019-05-11T12:15:58.368Z,2.20
2019-05-11T12:18:28.634Z,2.30
2019-05-11T12:20:58.986Z,2.30
2019-05-11T12:23:29.304Z,2.10
2019-05-11T12:25:59.315Z,2.00
2019-05-11T12:28:29.532Z,2.13
2019-05-11T12:30:59.885Z,2.33
2019-05-11T12:33:29.940Z,1.97
2019-05-11T12:36:01.685Z,1.80
2019-05-11T12:38:32.260Z,2.73
2019-05-11T12:41:03.038Z,3.40
2019-05-11T12:43:33.160Z,5.23
2019-05-11T12:46:03.732Z,2.60
2019-05-11T12:48:34.349Z,4.43
2019-05-11T12:51:04.464Z,2.90
2019-05-11T12:53:35.235Z,2.57
2019-05-11T12:56:07.976Z,1.87
2019-05-11T12:58:39.592Z,2.10
2019-05-11T13:01:10.224Z,2.00
2019-05-11T13:03:40.353Z,2.20
2019-05-11T13:06:10.416Z,2.43
2019-05-11T13:08:40.588Z,2.00
2019-05-11T13:11:10.923Z,2.40
2019-05-11T13:13:41.091Z,2.10
2019-05-11T13:16:11.768Z,2.83
2019-05-11T13:18:41.782Z,2.17
2019-05-11T13:21:11.848Z,3.00
2019-05-11T13:23:41.891Z,2.83
2019-05-11T13:26:13.488Z,2.73
2019-05-11T13:28:43.636Z,2.10
2019-05-11T13:31:13.748Z,2.20
2019-05-11T13:33:44.127Z,2.60
2019-05-11T13:36:14.209Z,3.03
2019-05-11T13:38:44.447Z,2.53
2019-05-11T13:41:15.288Z,2.87
2019-05-11T13:43:45.408Z,2.70
2019-05-11T13:46:17.723Z,2.20
2019-05-11T13:48:48.099Z,2.47
2019-05-11T13:51:18.527Z,6.40
2019-05-11T13:53:48.986Z,2.03
2019-05-11T13:56:19.411Z,2.33
2019-05-11T13:58:49.874Z,2.77
2019-05-11T14:01:20.172Z,3.20
2019-05-11T14:03:51.123Z,2.27
2019-05-11T14:06:21.295Z,2.80
2019-05-11T14:08:51.625Z,2.60
2019-05-11T14:11:21.704Z,2.97
2019-05-11T14:13:51.918Z,2.50
2019-05-11T14:16:22.336Z,3.03
2019-05-11T14:18:52.545Z,2.83
2019-05-11T14:21:23.009Z,2.90
2019-05-11T14:23:53.123Z,3.00
2019-05-11T14:26:23.385Z,3.20
2019-05-11T14:28:53.692Z,2.83
2019-05-11T14:31:24.636Z,3.10
2019-05-11T14:33:54.868Z,2.63
2019-05-11T14:36:25.032Z,2.80
2019-05-11T14:38:57.683Z,2.80
2019-05-11T14:41:28.554Z,2.57
2019-05-11T14:43:58.899Z,3.70
2019-05-11T14:46:28.961Z,3.70
2019-05-11T14:48:59.138Z,3.10
2019-05-11T14:51:29.446Z,3.50
2019-05-11T14:54:00.074Z,3.10
2019-05-11T14:56:30.268Z,2.90
2019-05-11T14:59:00.834Z,3.20
2019-05-11T15:01:31.222Z,3.70
2019-05-11T15:04:01.340Z,3.47
2019-05-11T15:06:31.944Z,2.87
2019-05-11T15:09:02.006Z,3.67
2019-05-11T15:11:32.032Z,3.40
2019-05-11T15:14:03.024Z,3.00
2019-05-11T15:16:33.165Z,3.37
2019-05-11T15:19:03.183Z,3.77
2019-05-11T15:21:33.247Z,3.37
2019-05-11T15:24:03.342Z,3.67
2019-05-11T15:26:33.751Z,4.23
2019-05-11T15:29:03.955Z,3.60
2019-05-11T15:31:34.056Z,3.50
2019-05-11T15:34:04.311Z,3.53
2019-05-11T15:36:34.905Z,3.53
2019-05-11T15:39:07.787Z,3.60
2019-05-11T15:41:38.980Z,3.10
2019-05-11T15:44:11.972Z,3.30
2019-05-11T15:46:41.184Z,3.43
2019-05-11T15:49:11.331Z,4.00
2019-05-11T15:51:41.516Z,3.57
2019-05-11T15:54:12.000Z,3.27
2019-05-11T15:56:42.124Z,3.10
2019-05-11T15:59:12.422Z,3.87
2019-05-11T16:01:42.660Z,2.90
2019-05-11T16:04:13.629Z,3.20
2019-05-11T16:06:43.851Z,3.57
2019-05-11T16:09:14.084Z,3.27
2019-05-11T16:11:44.528Z,3.27
2019-05-11T16:14:15.021Z,2.63
2019-05-11T16:16:45.122Z,3.17
2019-05-11T16:19:15.500Z,3.43
2019-05-11T16:21:45.824Z,3.60
2019-05-11T16:24:15.968Z,3.50
2019-05-11T16:26:47.529Z,3.63
2019-05-11T16:29:18.995Z,3.30
2019-05-11T16:31:49.867Z,3.33
2019-05-11T16:34:19.907Z,3.70
2019-05-11T16:36:49.959Z,4.17
2019-05-11T16:39:20.179Z,3.17
2019-05-11T16:41:50.403Z,2.83
2019-05-11T16:44:20.688Z,3.50
2019-05-11T16:46:51.129Z,3.10
2019-05-11T16:49:28.456Z,3.70
2019-05-11T16:51:53.268Z,2.80
2019-05-11T16:54:23.469Z,3.23
2019-05-11T16:56:53.569Z,3.20
2019-05-11T16:59:24.058Z,3.30
2019-05-11T17:01:54.137Z,3.27
2019-05-11T17:04:26.625Z,3.50
2019-05-11T17:06:57.852Z,3.77
2019-05-11T17:09:27.949Z,3.40
2019-05-11T17:11:58.154Z,3.77
2019-05-11T17:14:28.373Z,3.50
2019-05-11T17:16:58.691Z,4.10
2019-05-11T17:19:42.180Z,4.43
2019-05-11T17:22:00.730Z,3.77
2019-05-11T17:24:30.965Z,4.10
2019-05-11T17:27:01.492Z,3.67
2019-05-11T17:29:33.691Z,3.30
2019-05-11T17:32:04.148Z,3.37
2019-05-11T17:34:35.121Z,3.73
2019-05-11T17:37:05.658Z,2.87
2019-05-11T17:39:38.537Z,3.93
2019-05-11T17:42:09.008Z,4.10
2019-05-11T17:44:40.236Z,5.50
2019-05-11T17:47:10.640Z,3.97
2019-05-11T17:49:55.142Z,4.70
2019-05-11T17:52:15.539Z,5.27
2019-05-11T17:54:55.184Z,5.80
2019-05-11T17:57:27.768Z,5.57
2019-05-11T17:59:58.104Z,6.77
2019-05-11T18:02:28.958Z,4.93
2019-05-11T18:04:59.362Z,6.17
2019-05-11T18:07:33.605Z,4.70
2019-05-11T18:10:07.995Z,5.17
2019-05-11T18:12:39.167Z,4.67
2019-05-11T18:15:10.749Z,5.73
2019-05-11T18:17:41.776Z,3.67
2019-05-11T18:20:18.645Z,3.43
2019-05-11T18:22:49.381Z,4.40
2019-05-11T18:25:19.913Z,3.50
2019-05-11T18:27:49.968Z,5.10
2019-05-11T18:30:21.672Z,5.10
2019-05-11T18:32:54.869Z,4.30
2019-05-11T18:35:29.193Z,4.93
2019-05-11T18:37:59.327Z,5.17
2019-05-11T18:40:30.331Z,6.87
2019-05-11T18:43:01.055Z,5.30
2019-05-11T18:45:31.154Z,4.63
2019-05-11T18:48:01.348Z,5.20
2019-05-11T18:50:33.548Z,3.40
2019-05-11T18:53:03.451Z,3.80
2019-05-11T18:55:33.636Z,4.60
2019-05-11T18:58:04.061Z,4.00
2019-05-11T19:00:34.270Z,5.90
2019-05-11T19:03:05.270Z,5.43
2019-05-11T19:05:38.618Z,4.70
2019-05-11T19:08:09.125Z,4.30
2019-05-11T19:10:39.280Z,3.97
2019-05-11T19:13:09.561Z,4.07
2019-05-11T19:15:39.973Z,4.23
2019-05-11T19:18:10.827Z,4.93
2019-05-11T19:20:45.949Z,6.20
2019-05-11T19:23:13.007Z,4.90
2019-05-11T19:25:43.364Z,6.23
2019-05-11T19:28:13.419Z,6.00
2019-05-11T19:30:43.472Z,5.27
2019-05-11T19:33:14.021Z,3.90
2019-05-11T19:35:44.243Z,4.77
2019-05-11T19:38:15.569Z,3.83
2019-05-11T19:40:48.021Z,3.40
2019-05-11T19:43:18.763Z,3.90
2019-05-11T19:45:49.227Z,3.30
2019-05-11T19:48:19.483Z,4.07
2019-05-11T19:51:03.739Z,3.57
2019-05-11T19:53:21.710Z,2.60
2019-05-11T19:55:51.936Z,3.30
2019-05-11T19:58:21.992Z,3.23
2019-05-11T20:00:52.135Z,3.43
2019-05-11T20:03:22.469Z,3.13
2019-05-11T20:05:53.112Z,4.03
2019-05-11T20:08:23.201Z,3.30
2019-05-11T20:10:53.417Z,4.17
2019-05-11T20:13:23.473Z,3.17
2019-05-11T20:15:53.737Z,3.70
2019-05-11T20:18:24.172Z,3.33
2019-05-11T20:20:54.397Z,3.17
2019-05-11T20:23:24.652Z,3.10
2019-05-11T20:25:54.980Z,4.47
2019-05-11T20:28:25.017Z,3.53
2019-05-11T20:30:55.065Z,4.57
2019-05-11T20:33:25.136Z,4.27
2019-05-11T20:35:58.116Z,3.07
2019-05-11T20:38:28.863Z,3.03
2019-05-11T20:40:58.946Z,3.10
2019-05-11T20:43:29.233Z,3.10
2019-05-11T20:45:59.996Z,3.80
2019-05-11T20:48:30.387Z,3.33
2019-05-11T20:51:00.451Z,3.00
2019-05-11T20:53:30.692Z,3.37
2019-05-11T20:56:01.656Z,3.93
2019-05-11T20:58:50.696Z,3.80
2019-05-11T21:01:21.694Z,3.70
2019-05-11T21:03:51.757Z,4.67
2019-05-11T21:06:24.706Z,3.37
2019-05-11T21:08:55.074Z,2.60
2019-05-11T21:11:25.432Z,3.50
2019-05-11T21:13:57.300Z,3.57
2019-05-11T21:16:27.570Z,3.50
2019-05-11T21:19:02.224Z,2.70
2019-05-11T21:21:49.632Z,3.87
2019-05-11T21:24:08.582Z,3.20
2019-05-11T21:26:43.879Z,3.30
2019-05-11T21:29:14.724Z,3.03
2019-05-11T21:31:45.032Z,2.57
2019-05-11T21:34:15.147Z,4.00
2019-05-11T21:36:48.339Z,3.07
2019-05-11T21:39:18.947Z,4.00
2019-05-11T21:41:50.184Z,4.23
2019-05-11T21:44:20.389Z,2.83
2019-05-11T21:46:52.589Z,3.10
2019-05-11T21:49:23.524Z,3.50
2019-05-11T21:52:03.956Z,3.27
2019-05-11T21:54:30.319Z,3.37
2019-05-11T21:57:00.977Z,4.20
2019-05-11T21:59:32.015Z,4.00
2019-05-11T22:02:02.569Z,5.20
2019-05-11T22:04:32.680Z,4.00
2019-05-11T22:07:02.848Z,3.60
2019-05-11T22:09:33.925Z,3.83
2019-05-11T22:12:04.569Z,3.90
2019-05-11T22:14:35.468Z,3.50
2019-05-11T22:17:07.675Z,4.37
2019-05-11T22:19:40.255Z,3.33
2019-05-11T22:22:21.448Z,3.70
2019-05-11T22:24:43.964Z,3.40
2019-05-11T22:27:14.077Z,4.63
2019-05-11T22:29:45.441Z,4.13
2019-05-11T22:32:17.749Z,4.47
2019-05-11T22:34:47.986Z,3.87
2019-05-11T22:37:20.699Z,2.93
2019-05-11T22:39:51.244Z,3.70
2019-05-11T22:42:22.052Z,3.17
2019-05-11T22:44:52.640Z,3.80
2019-05-11T22:47:23.539Z,3.23
2019-05-11T22:49:53.747Z,3.33
2019-05-11T22:52:35.439Z,3.40
2019-05-11T22:54:55.992Z,3.77
2019-05-11T22:57:26.568Z,4.10
2019-05-11T22:59:58.710Z,4.13
2019-05-11T23:02:29.498Z,3.67
2019-05-11T23:05:00.420Z,3.87
2019-05-11T23:07:30.668Z,3.73
2019-05-11T23:10:03.080Z,3.80
2019-05-11T23:12:33.713Z,3.20
2019-05-11T23:15:13.056Z,3.10
2019-05-11T23:17:43.535Z,3.30
2019-05-11T23:20:16.487Z,5.40
2019-05-11T23:22:58.118Z,3.43
2019-05-11T23:25:22.553Z,3.63
2019-05-11T23:27:52.861Z,4.23
2019-05-11T23:30:23.196Z,3.60
2019-05-11T23:32:53.265Z,4.20
2019-05-11T23:35:23.858Z,3.03
2019-05-11T23:37:53.933Z,3.37
2019-05-11T23:40:24.260Z,3.57
2019-05-11T23:42:54.353Z,3.97
2019-05-11T23:45:24.916Z,3.80
2019-05-11T23:47:58.597Z,2.97
2019-05-11T23:50:31.197Z,3.43
2019-05-11T23:53:06.383Z,3.33
2019-05-11T23:55:34.429Z,3.03
2019-05-11T23:58:04.623Z,3.03
